YLL weather

Lloydminster Airport
Lloydminster, Alberta, Canada

Public forecast

Using degrees Celsius for public forecast. Weather courtesy of forecast.io.

Current aviation weather report (METAR) for Lloydminster Airport

Retrieved 2019/10/13 23:00 UTC (32 minutes ago):

CYLL 132300Z 17002KT 15SM BKN110 OVC250 09/M05 A2980 RMK AC6CI2 SLP121

Aviation forecast (TAF) for Lloydminster Airport

Retrieved 2019/10/13 18:39 UTC (5 hours ago):

TAF CYLL 131738Z 1318/1406 22006KT P6SM FEW100 BKN160 BECMG 1319/1321 12008KT FM132100 12008KT P6SM BKN100 RMK NXT FCST BY 140000Z